createdAt,value
2023-04-18T05:03:07.441Z,91.69
2023-04-18T05:08:09.387Z,91.61
2023-04-18T05:13:10.978Z,91.93
2023-04-18T05:18:14.112Z,92.13
2023-04-18T05:23:16.167Z,91.62
2023-04-18T05:28:17.621Z,92.13
2023-04-18T05:33:19.050Z,92.00
2023-04-18T05:38:20.619Z,92.11
2023-04-18T05:43:23.370Z,91.81
2023-04-18T05:48:25.186Z,92.25
2023-04-18T05:53:26.670Z,91.96
2023-04-18T05:58:28.800Z,92.26
2023-04-18T06:03:30.395Z,92.76
2023-04-18T06:08:31.932Z,91.94
2023-04-18T06:13:33.468Z,92.78
2023-04-18T06:18:34.947Z,91.83
2023-04-18T06:23:36.947Z,92.06
2023-04-18T06:28:38.398Z,91.93
2023-04-18T06:33:39.855Z,91.83
2023-04-18T06:38:41.325Z,92.48
2023-04-18T06:43:52.106Z,91.68
2023-04-18T06:49:03.996Z,92.91
2023-04-18T06:54:05.499Z,92.49
2023-04-18T06:59:06.944Z,92.74
2023-04-18T07:04:08.889Z,92.71
2023-04-18T07:09:10.512Z,92.71
2023-04-18T07:14:12.371Z,93.06
2023-04-18T07:19:14.179Z,93.27
2023-04-18T07:24:15.817Z,93.36
2023-04-18T07:29:19.289Z,93.26
2023-04-18T07:34:22.016Z,92.22
2023-04-18T07:39:23.459Z,92.31
2023-04-18T07:44:25.290Z,93.03
2023-04-18T07:49:26.842Z,92.28
2023-04-18T07:54:28.314Z,92.35
2023-04-18T07:59:29.921Z,92.18
2023-04-18T08:04:31.536Z,92.59
2023-04-18T08:09:34.251Z,92.37
2023-04-18T08:14:35.726Z,92.75
2023-04-18T08:19:37.224Z,92.32
2023-04-18T08:24:38.962Z,93.09
2023-04-18T08:29:41.541Z,93.46
2023-04-18T08:34:43.377Z,93.52
2023-04-18T08:39:45.045Z,93.58
2023-04-18T08:44:47.117Z,93.22
2023-04-18T08:49:48.744Z,93.10
2023-04-18T08:54:50.907Z,93.72
2023-04-18T08:59:56.357Z,93.79
2023-04-18T09:04:57.797Z,92.55
2023-04-18T09:09:59.336Z,92.44
2023-04-18T09:15:14.073Z,92.34
2023-04-18T09:20:41.146Z,92.75
2023-04-18T09:25:46.631Z,92.10
2023-04-18T09:30:51.357Z,92.39
2023-04-18T09:35:53.148Z,92.50
2023-04-18T09:41:08.921Z,91.34
2023-04-18T09:46:11.156Z,91.73
2023-04-18T09:51:16.512Z,92.27
2023-04-18T09:56:26.097Z,91.60
2023-04-18T10:01:28.501Z,92.91
2023-04-18T10:06:34.416Z,92.49
2023-04-18T10:11:36.430Z,91.92
2023-04-18T10:16:38.804Z,92.05
2023-04-18T10:21:51.365Z,92.06
2023-04-18T10:26:52.855Z,92.06
2023-04-18T10:31:54.338Z,92.00
2023-04-18T10:37:06.126Z,91.73
2023-04-18T10:42:07.592Z,92.45
2023-04-18T10:47:09.129Z,92.62
2023-04-18T10:52:13.282Z,92.44
2023-04-18T10:57:15.352Z,92.73
2023-04-18T11:02:29.941Z,92.60
2023-04-18T11:07:52.820Z,92.61
2023-04-18T11:12:55.047Z,92.78
2023-04-18T11:18:01.675Z,92.61
2023-04-18T11:23:03.520Z,92.63
2023-04-18T11:28:04.979Z,92.81
2023-04-18T11:33:08.410Z,92.48
2023-04-18T11:38:12.577Z,92.20
2023-04-18T11:43:21.359Z,92.59
2023-04-18T11:48:23.639Z,92.64
2023-04-18T11:53:32.727Z,93.29
2023-04-18T11:58:34.872Z,93.27
2023-04-18T12:03:36.631Z,93.24
2023-04-18T12:08:38.172Z,92.91
2023-04-18T12:13:39.628Z,92.83
2023-04-18T12:18:41.813Z,93.37
2023-04-18T12:23:45.782Z,93.12
2023-04-18T12:28:51.010Z,92.91
2023-04-18T12:33:52.654Z,92.53
2023-04-18T12:38:54.133Z,92.52
2023-04-18T12:43:55.625Z,93.13
2023-04-18T12:48:57.414Z,93.05
2023-04-18T12:53:58.960Z,93.28
2023-04-18T12:59:00.528Z,92.79
2023-04-18T13:04:11.750Z,92.75
2023-04-18T13:09:14.509Z,93.06
2023-04-18T13:14:16.231Z,92.85
2023-04-18T13:19:17.661Z,92.82
2023-04-18T13:24:19.127Z,93.13
2023-04-18T13:29:20.660Z,92.54
2023-04-18T13:34:22.090Z,92.73
2023-04-18T13:39:24.705Z,92.70
2023-04-18T13:44:26.223Z,92.99
2023-04-18T13:49:28.036Z,93.24
2023-04-18T13:54:31.410Z,92.63
2023-04-18T13:59:33.020Z,93.20
2023-04-18T14:04:34.939Z,92.83
2023-04-18T14:09:36.436Z,93.62
2023-04-18T14:14:37.864Z,93.51
2023-04-18T14:19:39.282Z,93.40
2023-04-18T14:24:40.730Z,93.78
2023-04-18T14:29:42.155Z,93.46
2023-04-18T14:34:43.626Z,93.84
2023-04-18T14:39:45.072Z,93.93
2023-04-18T14:44:46.506Z,93.37
2023-04-18T14:49:47.947Z,93.40
2023-04-18T14:54:49.406Z,93.53
2023-04-18T14:59:51.157Z,93.37
2023-04-18T15:04:53.311Z,93.41
2023-04-18T15:09:54.875Z,92.93
2023-04-18T15:14:56.584Z,93.25
2023-04-18T15:20:00.918Z,93.24
2023-04-18T15:25:03.983Z,93.42
2023-04-18T15:30:07.711Z,93.42
2023-04-18T15:35:10.067Z,93.30
2023-04-18T15:40:15.955Z,93.47
2023-04-18T15:45:17.439Z,93.78
2023-04-18T15:50:19.018Z,93.79
2023-04-18T15:55:20.642Z,94.07
2023-04-18T16:00:23.160Z,93.63
2023-04-18T16:05:24.721Z,94.04
2023-04-18T16:10:26.187Z,94.13
2023-04-18T16:15:29.404Z,93.85
2023-04-18T16:20:33.083Z,93.95
2023-04-18T16:25:34.541Z,94.26
2023-04-18T16:30:36.087Z,93.82
2023-04-18T16:35:37.530Z,93.93
2023-04-18T16:40:38.959Z,93.98
2023-04-18T16:45:40.472Z,93.97
2023-04-18T16:50:45.651Z,94.26
2023-04-18T16:55:47.072Z,93.83
2023-04-18T17:00:48.626Z,93.83
2023-04-18T17:05:50.375Z,93.83
2023-04-18T17:10:52.581Z,93.87
2023-04-18T17:15:54.226Z,93.97
2023-04-18T17:20:55.854Z,93.83
2023-04-18T17:25:57.596Z,93.88
2023-04-18T17:31:01.237Z,94.33
2023-04-18T17:36:06.330Z,93.82
2023-04-18T17:41:07.991Z,94.30
2023-04-18T17:46:09.592Z,93.79
2023-04-18T17:51:11.167Z,93.86
2023-04-18T17:56:14.073Z,94.10
2023-04-18T18:01:17.264Z,93.62
2023-04-18T18:06:19.092Z,93.61
2023-04-18T18:11:21.344Z,94.25
2023-04-18T18:16:24.001Z,93.70
2023-04-18T18:21:26.223Z,94.06
2023-04-18T18:26:27.691Z,93.95
2023-04-18T18:31:29.200Z,93.88
2023-04-18T18:36:32.197Z,93.95
2023-04-18T18:41:33.898Z,94.34
2023-04-18T18:46:36.039Z,94.60
2023-04-18T18:51:37.651Z,94.37
2023-04-18T18:56:39.951Z,94.31
2023-04-18T19:01:41.632Z,94.12
2023-04-18T19:06:43.180Z,93.89
2023-04-18T19:11:44.688Z,93.97
2023-04-18T19:16:46.172Z,93.78
2023-04-18T19:21:49.145Z,94.08
2023-04-18T19:26:50.748Z,94.22
2023-04-18T19:31:52.302Z,94.47
2023-04-18T19:36:53.849Z,94.30
2023-04-18T19:41:55.361Z,94.71
2023-04-18T19:46:57.120Z,94.14
2023-04-18T19:51:58.672Z,94.12
2023-04-18T19:57:01.064Z,93.69
2023-04-18T20:02:05.655Z,93.46
2023-04-18T20:07:07.914Z,93.67
2023-04-18T20:12:09.456Z,93.96
2023-04-18T20:17:11.357Z,93.70
2023-04-18T20:22:14.715Z,94.24
2023-04-18T20:27:18.668Z,93.83
2023-04-18T20:32:20.493Z,93.67
2023-04-18T20:37:22.269Z,93.86
2023-04-18T20:42:23.823Z,93.69
2023-04-18T20:47:26.034Z,94.11
2023-04-18T20:52:27.614Z,94.18
2023-04-18T20:57:29.320Z,94.08
2023-04-18T21:02:30.849Z,94.01
2023-04-18T21:07:32.897Z,94.54
2023-04-18T21:12:34.892Z,94.58
2023-04-18T21:17:36.460Z,94.56
2023-04-18T21:22:38.364Z,94.20
2023-04-18T21:27:39.836Z,94.36
2023-04-18T21:32:41.343Z,94.50
2023-04-18T21:37:43.841Z,94.42
2023-04-18T21:42:46.478Z,94.88
2023-04-18T21:47:49.469Z,94.80
2023-04-18T21:52:52.034Z,94.28
2023-04-18T21:57:54.172Z,95.19
